Time;durP1;ratioP1;P1;durP2;ratioP2;P2;SDS_P1;SDS_P2;PMS_P1;PMS_P2;Temp;Humidity;BMP_temperature;BMP_pressure;BME280_temperature;BME280_humidity;BME280_pressure;Samples;Min_cycle;Max_cycle;Signal;HPM_P1;HPM_P2
2023/02/17 00:01:59;;;;;;;5.57;4.90;;;11.30;99.90;;;;;;4993625;28;20470;-71
2023/02/17 00:04:27;;;;;;;6.47;5.07;;;11.30;99.90;;;;;;4985987;28;20427;-71
2023/02/17 00:06:53;;;;;;;5.40;4.90;;;11.40;99.90;;;;;;4986299;28;20201;-71
2023/02/17 00:09:19;;;;;;;7.43;5.10;;;11.40;99.90;;;;;;4990178;28;20775;-72
2023/02/17 00:11:44;;;;;;;6.53;5.10;;;11.50;99.90;;;;;;4989777;28;20183;-71
2023/02/17 00:14:13;;;;;;;4.87;4.30;;;11.60;99.90;;;;;;5006065;28;20546;-71
2023/02/17 00:16:39;;;;;;;6.10;4.23;;;11.50;99.90;;;;;;5005489;28;20196;-72
2023/02/17 00:19:22;;;;;;;7.80;4.90;;;11.50;99.90;;;;;;4993558;28;20483;-72
2023/02/17 00:21:52;;;;;;;6.20;5.10;;;11.30;99.90;;;;;;4986717;28;20294;-72
2023/02/17 00:24:17;;;;;;;5.10;4.47;;;11.40;99.90;;;;;;5000321;28;21009;-71
2023/02/17 00:26:43;;;;;;;6.30;5.00;;;11.40;99.90;;;;;;4991644;28;20466;-71
2023/02/17 00:29:09;;;;;;;5.10;4.60;;;11.30;99.90;;;;;;4986198;28;20185;-73
2023/02/17 00:31:34;;;;;;;6.20;4.50;;;11.20;99.90;;;;;;4986000;28;20538;-73
2023/02/17 00:34:00;;;;;;;7.67;5.10;;;11.30;99.90;;;;;;5006583;22;20270;-75
2023/02/17 00:36:26;;;;;;;5.30;3.90;;;11.30;99.90;;;;;;4987070;28;20178;-75
2023/02/17 00:38:54;;;;;;;6.33;4.20;;;11.30;99.90;;;;;;5003674;28;20175;-75
2023/02/17 00:41:20;;;;;;;5.03;4.53;;;11.30;99.90;;;;;;5004906;28;20459;-75
2023/02/17 00:43:47;;;;;;;6.00;4.87;;;11.40;99.90;;;;;;4999887;28;20821;-76
2023/02/17 00:46:13;;;;;;;5.80;4.50;;;11.40;99.90;;;;;;4986091;28;21574;-75
2023/02/17 00:48:39;;;;;;;5.57;4.40;;;11.30;99.90;;;;;;4993933;28;20420;-75
2023/02/17 00:51:05;;;;;;;4.37;3.97;;;11.30;99.90;;;;;;4984915;28;20479;-75
2023/02/17 00:53:31;;;;;;;5.70;4.60;;;11.30;99.90;;;;;;4984712;28;20456;-75
2023/02/17 00:55:56;;;;;;;4.33;3.57;;;11.30;99.90;;;;;;4971192;28;20874;-75
2023/02/17 00:58:24;;;;;;;5.00;4.50;;;11.20;99.90;;;;;;4990701;28;20279;-74
2023/02/17 01:00:49;;;;;;;5.83;4.57;;;11.20;99.90;;;;;;4984536;28;20667;-74
2023/02/17 01:03:16;;;;;;;6.10;4.40;;;11.30;99.90;;;;;;4987104;28;20436;-74
2023/02/17 01:05:44;;;;;;;6.33;4.30;;;11.30;99.90;;;;;;4985444;28;20180;-75
2023/02/17 01:08:11;;;;;;;5.50;3.67;;;11.20;99.90;;;;;;4999691;28;20501;-74
2023/02/17 01:10:39;;;;;;;7.97;4.30;;;11.10;99.90;;;;;;4995257;28;20442;-75
2023/02/17 01:13:05;;;;;;;7.67;4.73;;;11.00;99.90;;;;;;4984775;28;20721;-75
2023/02/17 01:15:35;;;;;;;5.40;4.30;;;11.00;99.90;;;;;;4983424;28;20430;-75
2023/02/17 01:18:01;;;;;;;5.27;4.70;;;10.80;99.90;;;;;;4991865;28;20430;-75
2023/02/17 01:20:27;;;;;;;5.10;4.20;;;10.90;99.90;;;;;;4986557;28;21008;-75
2023/02/17 01:22:56;;;;;;;8.30;4.40;;;11.00;99.90;;;;;;4993967;28;20272;-75
2023/02/17 01:25:21;;;;;;;5.07;3.53;;;10.90;99.90;;;;;;4989632;28;20419;-75
2023/02/17 01:27:47;;;;;;;5.20;4.70;;;11.00;99.90;;;;;;4996715;28;20415;-75
2023/02/17 01:30:13;;;;;;;4.77;3.70;;;11.00;99.90;;;;;;5003969;28;20198;-75
2023/02/17 01:32:38;;;;;;;7.20;4.40;;;11.00;99.90;;;;;;4990484;28;20744;-75
2023/02/17 01:35:04;;;;;;;6.50;4.33;;;11.00;99.90;;;;;;4984385;28;20212;-75
2023/02/17 01:37:32;;;;;;;5.80;4.23;;;10.90;99.90;;;;;;4984214;28;20176;-75
2023/02/17 01:39:58;;;;;;;5.10;3.73;;;10.90;99.90;;;;;;4988085;28;20938;-75
2023/02/17 01:42:23;;;;;;;4.83;3.77;;;11.00;99.90;;;;;;4985374;28;20416;-75
2023/02/17 01:45:40;;;;;;;7.07;4.70;;;11.20;99.90;;;;;;5003319;28;20581;-74
2023/02/17 01:48:13;;;;;;;6.00;3.40;;;11.20;99.90;;;;;;4998903;28;20525;-74
2023/02/17 01:51:05;;;;;;;4.77;3.57;;;11.10;99.90;;;;;;4984118;28;20937;-75
2023/02/17 01:53:54;;;;;;;7.43;4.47;;;11.10;99.90;;;;;;4965795;28;20634;-75
2023/02/17 01:56:21;;;;;;;8.80;5.03;;;11.20;99.90;;;;;;4982336;28;20430;-74
2023/02/17 01:59:00;;;;;;;5.37;3.83;;;11.20;99.90;;;;;;4993174;28;20604;-75
2023/02/17 02:01:25;;;;;;;4.67;4.27;;;11.30;99.90;;;;;;4999914;28;20447;-75
2023/02/17 02:03:52;;;;;;;4.63;4.13;;;11.30;99.90;;;;;;5003869;28;20458;-75
2023/02/17 02:06:22;;;;;;;5.03;3.87;;;11.30;99.90;;;;;;5002460;28;20187;-74
2023/02/17 02:09:02;;;;;;;5.07;4.20;;;11.10;99.90;;;;;;4987687;28;20427;-75
2023/02/17 02:11:28;;;;;;;5.23;3.73;;;11.10;99.90;;;;;;4970174;28;20431;-75
2023/02/17 02:13:54;;;;;;;5.80;4.40;;;11.30;99.90;;;;;;4990574;28;20438;-76
2023/02/17 02:17:04;;;;;;;5.13;3.77;;;11.20;99.90;;;;;;4986095;28;20426;-75
2023/02/17 02:19:58;;;;;;;4.77;4.27;;;11.10;99.90;;;;;;4929906;29;20209;-75
2023/02/17 02:22:52;;;;;;;3.40;3.20;;;11.00;99.90;;;;;;5000961;28;20507;-75
2023/02/17 02:25:55;;;;;;;4.33;3.87;;;11.00;99.90;;;;;;4994265;28;20431;-75
2023/02/17 02:28:54;;;;;;;4.77;3.53;;;11.20;99.90;;;;;;4998404;28;20448;-75
2023/02/17 02:31:55;;;;;;;5.37;4.30;;;11.30;99.90;;;;;;4993708;28;20413;-74
2023/02/17 02:34:28;;;;;;;6.83;4.50;;;11.30;99.90;;;;;;4925163;29;20467;-74
2023/02/17 02:37:11;;;;;;;5.97;3.60;;;11.20;99.90;;;;;;4974585;28;20450;-75
2023/02/17 02:39:46;;;;;;;6.90;4.10;;;11.10;99.90;;;;;;4988679;28;20419;-75
2023/02/17 02:42:15;;;;;;;5.10;3.83;;;11.10;99.90;;;;;;4994738;28;20505;-75
2023/02/17 02:44:41;;;;;;;6.27;3.97;;;11.00;99.90;;;;;;4988362;28;20524;-75
2023/02/17 02:47:38;;;;;;;6.50;3.90;;;11.10;99.90;;;;;;4986234;28;20536;-75
2023/02/17 02:50:04;;;;;;;6.10;3.90;;;11.00;99.90;;;;;;4995794;28;20182;-75
2023/02/17 02:52:57;;;;;;;4.70;3.87;;;11.10;99.90;;;;;;4989221;28;20471;-75
2023/02/17 02:55:50;;;;;;;4.93;3.60;;;11.20;99.90;;;;;;4995037;28;20413;-75
2023/02/17 02:58:18;;;;;;;4.10;3.70;;;11.30;99.90;;;;;;4984044;28;20422;-75
2023/02/17 03:00:57;;;;;;;6.23;4.57;;;11.40;99.90;;;;;;4993676;28;20453;-75
2023/02/17 03:03:32;;;;;;;4.67;3.80;;;11.50;99.90;;;;;;4995044;28;20430;-75
2023/02/17 03:06:06;;;;;;;6.50;4.30;;;11.50;99.90;;;;;;4989475;28;20401;-75
2023/02/17 03:08:37;;;;;;;4.17;3.77;;;11.50;99.90;;;;;;4977093;28;20518;-75
2023/02/17 03:11:03;;;;;;;5.03;3.70;;;11.40;99.90;;;;;;4987635;28;20422;-74
2023/02/17 03:13:32;;;;;;;4.07;3.67;;;11.50;99.90;;;;;;4983560;28;20441;-75
2023/02/17 03:15:58;;;;;;;5.00;4.30;;;11.40;99.90;;;;;;4975586;28;20421;-75
2023/02/17 03:18:23;;;;;;;6.13;4.40;;;11.30;99.90;;;;;;5003490;28;20877;-75
2023/02/17 03:20:58;;;;;;;6.20;4.13;;;11.20;99.90;;;;;;5006433;28;20221;-75
2023/02/17 03:23:24;;;;;;;4.63;3.83;;;11.10;99.90;;;;;;4994476;28;20680;-75
2023/02/17 03:25:49;;;;;;;5.20;3.80;;;11.10;99.90;;;;;;5003012;28;20446;-75
2023/02/17 03:28:15;;;;;;;5.80;3.70;;;11.00;99.90;;;;;;4999627;28;20622;-75
2023/02/17 03:30:41;;;;;;;5.23;3.80;;;11.20;99.90;;;;;;4993059;28;20174;-75
2023/02/17 03:33:07;;;;;;;10.60;4.43;;;11.30;99.90;;;;;;4984006;28;20201;-75
2023/02/17 03:35:32;;;;;;;4.20;3.60;;;11.40;99.90;;;;;;4995632;28;20219;-75
2023/02/17 03:37:58;;;;;;;5.40;3.77;;;11.50;99.90;;;;;;4994901;28;20471;-75
2023/02/17 03:40:24;;;;;;;6.43;4.60;;;11.40;99.90;;;;;;4981102;28;20254;-75
2023/02/17 03:42:49;;;;;;;4.37;3.10;;;11.30;99.90;;;;;;4997498;28;20184;-75
2023/02/17 03:45:15;;;;;;;6.30;4.03;;;11.40;99.90;;;;;;4998078;28;20231;-75
2023/02/17 03:47:40;;;;;;;6.47;3.50;;;11.40;99.90;;;;;;5000336;28;20186;-75
2023/02/17 03:50:06;;;;;;;5.63;3.50;;;11.30;99.90;;;;;;5002578;28;20173;-75
2023/02/17 03:52:32;;;;;;;9.53;3.97;;;11.20;99.90;;;;;;4998945;28;20183;-76
2023/02/17 03:54:58;;;;;;;5.97;4.27;;;11.10;99.90;;;;;;4994318;28;20444;-75
2023/02/17 03:57:23;;;;;;;7.43;4.50;;;11.00;99.90;;;;;;4992245;28;20199;-75
2023/02/17 03:59:49;;;;;;;4.57;3.83;;;10.80;99.90;;;;;;4986409;28;20223;-75
2023/02/17 04:02:14;;;;;;;8.20;4.60;;;10.70;99.90;;;;;;4993177;28;20234;-74
2023/02/17 04:04:40;;;;;;;8.63;4.63;;;10.80;99.90;;;;;;4999308;28;21044;-75
2023/02/17 04:07:05;;;;;;;7.97;3.57;;;10.80;99.90;;;;;;4973982;28;20185;-75
2023/02/17 04:09:31;;;;;;;7.30;4.20;;;10.70;99.90;;;;;;4992466;28;20639;-75
2023/02/17 04:11:56;;;;;;;5.80;4.10;;;10.70;99.90;;;;;;4995463;28;20191;-75
2023/02/17 04:14:22;;;;;;;5.73;4.23;;;10.90;99.90;;;;;;4986331;28;20247;-75
2023/02/17 04:16:48;;;;;;;6.80;4.00;;;11.00;99.90;;;;;;4998041;28;20192;-76
2023/02/17 04:19:13;;;;;;;6.37;4.30;;;11.10;99.90;;;;;;5006082;28;20275;-75
2023/02/17 04:21:39;;;;;;;5.37;3.80;;;11.10;99.90;;;;;;4995010;28;20587;-74
2023/02/17 04:24:05;;;;;;;5.30;3.53;;;11.00;99.90;;;;;;4996150;28;20255;-74
2023/02/17 04:26:30;;;;;;;5.83;4.53;;;11.10;99.90;;;;;;4986598;28;20210;-74
2023/02/17 04:28:56;;;;;;;10.03;4.07;;;11.10;99.90;;;;;;4984261;28;20189;-75
2023/02/17 04:31:22;;;;;;;5.10;4.00;;;11.00;99.90;;;;;;5000377;28;20181;-74
2023/02/17 04:33:48;;;;;;;5.83;4.40;;;10.90;99.90;;;;;;4992182;28;20751;-75
2023/02/17 04:36:13;;;;;;;5.43;3.50;;;11.00;99.90;;;;;;5004583;28;20415;-75
2023/02/17 04:38:39;;;;;;;5.03;4.30;;;11.00;99.90;;;;;;5001289;28;20196;-74
2023/02/17 04:41:05;;;;;;;4.93;4.43;;;11.10;99.90;;;;;;4993549;28;20207;-74
2023/02/17 04:43:31;;;;;;;5.90;4.70;;;11.00;99.90;;;;;;4971696;28;20207;-75
2023/02/17 04:45:57;;;;;;;5.37;4.33;;;11.00;99.90;;;;;;4968620;28;20415;-75
2023/02/17 04:48:23;;;;;;;6.63;4.17;;;10.90;99.90;;;;;;4986223;28;20427;-75
2023/02/17 04:50:49;;;;;;;5.97;4.37;;;10.90;99.90;;;;;;4972552;28;20283;-74
2023/02/17 04:53:15;;;;;;;5.17;3.60;;;10.80;99.90;;;;;;4995294;28;20535;-74
2023/02/17 04:55:41;;;;;;;5.33;3.50;;;10.70;99.90;;;;;;4968656;28;20192;-74
2023/02/17 04:58:08;;;;;;;7.10;4.63;;;10.70;99.90;;;;;;4997035;28;20440;-75
2023/02/17 05:00:34;;;;;;;5.80;3.97;;;10.70;99.90;;;;;;5000702;28;20529;-75
2023/02/17 05:03:00;;;;;;;7.47;4.20;;;10.90;99.90;;;;;;4996852;28;20420;-75
2023/02/17 05:05:25;;;;;;;4.20;3.80;;;11.00;99.90;;;;;;4998100;28;20422;-75
2023/02/17 05:07:51;;;;;;;5.70;4.03;;;11.10;99.90;;;;;;4998648;28;20227;-76
2023/02/17 05:10:17;;;;;;;8.43;4.70;;;11.10;99.90;;;;;;4984714;28;20218;-76
2023/02/17 05:12:43;;;;;;;3.90;3.50;;;11.20;99.90;;;;;;5004875;28;20199;-76
2023/02/17 05:15:10;;;;;;;5.10;3.90;;;11.20;99.90;;;;;;5000617;28;20444;-76
2023/02/17 05:17:36;;;;;;;4.77;3.70;;;11.10;99.90;;;;;;5008701;28;20423;-76
2023/02/17 05:20:02;;;;;;;5.20;4.00;;;11.10;99.90;;;;;;4984885;28;20494;-76
2023/02/17 05:22:28;;;;;;;5.70;4.37;;;11.20;99.90;;;;;;4996599;28;20422;-76
2023/02/17 05:24:53;;;;;;;4.30;3.53;;;11.30;99.90;;;;;;4998632;28;20731;-76
2023/02/17 05:27:19;;;;;;;6.97;4.17;;;11.30;99.90;;;;;;5002053;28;20250;-75
2023/02/17 05:29:45;;;;;;;4.90;3.87;;;11.20;99.90;;;;;;5000800;28;20206;-75
2023/02/17 05:32:10;;;;;;;6.57;4.90;;;11.20;99.90;;;;;;4987366;28;20270;-76
2023/02/17 05:34:36;;;;;;;5.53;4.20;;;11.20;99.90;;;;;;4997497;28;20572;-76
2023/02/17 05:37:02;;;;;;;6.40;4.30;;;11.40;99.90;;;;;;4983482;28;20199;-76
2023/02/17 05:39:28;;;;;;;6.20;4.43;;;11.10;99.90;;;;;;4996324;28;21000;-76
2023/02/17 05:41:53;;;;;;;5.13;4.63;;;11.10;99.90;;;;;;4990374;28;20904;-76
2023/02/17 05:44:19;;;;;;;6.33;4.70;;;11.20;99.90;;;;;;5002955;28;20566;-76
2023/02/17 05:46:44;;;;;;;4.90;3.60;;;11.20;99.90;;;;;;5006674;28;20180;-75
2023/02/17 05:49:10;;;;;;;5.80;3.73;;;11.30;99.90;;;;;;5002008;28;20188;-76
2023/02/17 05:51:36;;;;;;;7.87;4.23;;;11.60;99.90;;;;;;5000655;28;20479;-76
2023/02/17 05:54:01;;;;;;;6.60;4.23;;;11.40;99.90;;;;;;5002987;28;20584;-74
2023/02/17 05:56:27;;;;;;;5.47;4.00;;;11.50;99.90;;;;;;4985422;28;20784;-74
2023/02/17 05:58:53;;;;;;;6.77;4.20;;;11.50;99.90;;;;;;5000935;28;20194;-74
2023/02/17 06:01:18;;;;;;;11.13;8.03;;;11.50;99.90;;;;;;5009446;28;20271;-74
2023/02/17 06:03:44;;;;;;;34.90;22.43;;;11.60;99.90;;;;;;5006488;28;20227;-75
2023/02/17 06:06:09;;;;;;;53.77;31.27;;;11.80;99.90;;;;;;4990209;28;20236;-75
2023/02/17 06:08:35;;;;;;;122.27;64.33;;;11.70;99.90;;;;;;5000422;28;20544;-74
2023/02/17 06:11:01;;;;;;;45.67;28.60;;;11.90;99.90;;;;;;4992187;28;20210;-75
2023/02/17 06:13:27;;;;;;;20.43;14.07;;;11.90;99.90;;;;;;4998663;28;20475;-75
2023/02/17 06:15:52;;;;;;;72.23;43.23;;;11.80;99.90;;;;;;5005445;28;20187;-75
2023/02/17 06:18:18;;;;;;;9.87;4.87;;;11.90;99.90;;;;;;4987194;28;20266;-75
2023/02/17 06:20:43;;;;;;;9.20;5.60;;;11.80;99.90;;;;;;4995040;28;20218;-75
2023/02/17 06:23:10;;;;;;;5.50;5.00;;;11.80;99.90;;;;;;4992515;28;20182;-75
2023/02/17 06:25:36;;;;;;;7.50;5.17;;;11.70;99.90;;;;;;4996091;28;20494;-74
2023/02/17 06:28:02;;;;;;;10.80;8.43;;;11.70;99.90;;;;;;4991220;28;20628;-75
2023/02/17 06:30:28;;;;;;;14.47;12.90;;;11.90;99.90;;;;;;4985274;28;20202;-75
2023/02/17 06:32:53;;;;;;;20.77;18.37;;;11.90;99.90;;;;;;4999790;28;20439;-75
2023/02/17 06:35:19;;;;;;;12.20;9.87;;;11.90;99.90;;;;;;5018759;28;20199;-76
2023/02/17 06:37:44;;;;;;;4.40;4.00;;;12.00;99.90;;;;;;5013649;28;20203;-75
2023/02/17 06:40:11;;;;;;;5.60;4.80;;;11.70;99.90;;;;;;4998565;28;20213;-75
2023/02/17 06:42:36;;;;;;;5.63;4.47;;;11.60;99.90;;;;;;4986426;28;20222;-75
2023/02/17 06:45:04;;;;;;;5.57;4.60;;;11.60;99.90;;;;;;4990851;28;21651;-75
2023/02/17 06:47:31;;;;;;;5.47;4.50;;;11.60;99.90;;;;;;4988947;28;20379;-75
2023/02/17 06:49:57;;;;;;;5.00;4.37;;;11.60;99.90;;;;;;4983946;28;20472;-76
2023/02/17 06:52:22;;;;;;;6.00;5.10;;;11.80;99.90;;;;;;4984449;28;20872;-76
2023/02/17 06:54:48;;;;;;;5.20;3.97;;;11.80;99.90;;;;;;4998346;28;20300;-75
2023/02/17 06:57:16;;;;;;;7.20;4.60;;;11.90;99.90;;;;;;4992976;28;20183;-75
2023/02/17 06:59:41;;;;;;;6.80;3.63;;;11.90;99.90;;;;;;4998961;28;20942;-76
2023/02/17 07:02:11;;;;;;;5.57;4.07;;;12.00;99.90;;;;;;4996428;28;20455;-76
2023/02/17 07:04:37;;;;;;;4.40;4.00;;;12.00;99.90;;;;;;5001039;28;20216;-75
2023/02/17 07:07:02;;;;;;;6.23;4.30;;;12.10;99.90;;;;;;4998453;28;20461;-76
2023/02/17 07:09:28;;;;;;;5.47;4.17;;;11.90;99.90;;;;;;5008803;28;20424;-75
2023/02/17 07:11:53;;;;;;;5.73;4.83;;;11.80;99.90;;;;;;5002616;28;20299;-75
2023/02/17 07:14:19;;;;;;;6.90;4.53;;;11.80;99.90;;;;;;5004539;28;20244;-75
2023/02/17 07:16:44;;;;;;;3.97;3.57;;;11.90;99.90;;;;;;5002111;28;20195;-75
2023/02/17 07:19:10;;;;;;;6.67;4.43;;;11.70;99.90;;;;;;4977436;28;20243;-75
2023/02/17 07:21:35;;;;;;;5.40;3.83;;;11.80;99.90;;;;;;4993876;28;20258;-75
2023/02/17 07:24:01;;;;;;;7.03;4.37;;;11.90;99.90;;;;;;5008408;28;20213;-75
2023/02/17 07:26:27;;;;;;;10.57;3.87;;;11.90;99.90;;;;;;4999840;28;20658;-75
2023/02/17 07:28:52;;;;;;;5.50;3.90;;;11.70;99.90;;;;;;4991872;28;20197;-75
2023/02/17 07:31:18;;;;;;;6.90;4.03;;;11.90;99.90;;;;;;4990352;28;20245;-75
2023/02/17 07:33:46;;;;;;;4.63;3.90;;;11.80;99.90;;;;;;5011246;23;20228;-71
2023/02/17 07:36:14;;;;;;;4.17;3.77;;;12.00;99.90;;;;;;4986938;28;20174;-72
2023/02/17 07:38:40;;;;;;;5.37;3.57;;;11.90;99.90;;;;;;5002556;28;20429;-69
2023/02/17 07:41:08;;;;;;;5.23;4.20;;;11.70;99.90;;;;;;4988561;28;20454;-72
2023/02/17 07:43:34;;;;;;;6.63;4.17;;;11.70;99.90;;;;;;4984911;28;20211;-72
2023/02/17 07:46:00;;;;;;;4.53;3.97;;;11.80;99.90;;;;;;5006084;28;20844;-69
2023/02/17 07:48:26;;;;;;;3.30;2.97;;;12.00;99.90;;;;;;5006658;28;20412;-72
2023/02/17 07:50:51;;;;;;;6.13;3.63;;;12.00;99.90;;;;;;5006233;28;20424;-71
2023/02/17 07:53:17;;;;;;;5.43;4.10;;;12.00;99.90;;;;;;4992152;28;20288;-71
2023/02/17 07:55:42;;;;;;;5.40;3.50;;;12.10;99.90;;;;;;4987558;28;20216;-71
2023/02/17 07:58:08;;;;;;;7.43;4.03;;;11.80;99.90;;;;;;5005574;28;20249;-73
2023/02/17 08:00:33;;;;;;;3.97;3.40;;;11.90;99.90;;;;;;4986238;28;20284;-72
2023/02/17 08:02:59;;;;;;;4.40;2.80;;;12.00;99.90;;;;;;4985590;28;20229;-71
2023/02/17 08:05:24;;;;;;;4.90;3.30;;;12.20;99.90;;;;;;4987040;28;20180;-72
2023/02/17 08:13:18;;;;;;;6.47;3.60;;;12.10;99.90;;;;;;4986764;28;20191;-72
2023/02/17 08:13:26;;;;;;;4.07;3.50;;;12.30;99.90;;;;;;4986140;28;20439;-73
2023/02/17 08:15:51;;;;;;;3.60;3.20;;;12.50;99.90;;;;;;4986260;28;20418;-70
2023/02/17 08:18:17;;;;;;;4.23;3.50;;;12.40;99.90;;;;;;4986483;28;20943;-72
2023/02/17 08:20:43;;;;;;;4.23;2.87;;;12.20;99.90;;;;;;4986118;28;20289;-70
2023/02/17 08:23:08;;;;;;;3.77;2.53;;;12.40;99.90;;;;;;5005420;28;20227;-73
2023/02/17 08:25:35;;;;;;;5.07;3.30;;;12.40;99.90;;;;;;4986096;28;20176;-71
2023/02/17 08:28:01;;;;;;;4.23;3.30;;;12.60;99.90;;;;;;4996542;28;20179;-71
2023/02/17 08:30:27;;;;;;;3.63;2.67;;;12.60;99.90;;;;;;4985529;28;20951;-72
2023/02/17 08:32:52;;;;;;;4.43;3.27;;;12.60;99.90;;;;;;4985936;28;20443;-70
2023/02/17 08:35:21;;;;;;;3.80;2.80;;;12.60;99.90;;;;;;4996380;28;20728;-72
2023/02/17 08:37:49;;;;;;;5.77;3.40;;;12.70;99.90;;;;;;4990800;28;20228;-71
2023/02/17 08:40:16;;;;;;;3.10;2.70;;;12.70;99.90;;;;;;4995358;28;20437;-72
2023/02/17 08:42:41;;;;;;;3.97;2.73;;;12.70;99.90;;;;;;5005330;28;20635;-72
2023/02/17 08:45:07;;;;;;;3.83;3.10;;;12.40;99.90;;;;;;5004845;28;20418;-72
2023/02/17 08:47:34;;;;;;;3.80;3.13;;;12.50;99.90;;;;;;5005017;28;20543;-71
2023/02/17 08:50:00;;;;;;;3.60;3.23;;;12.50;99.90;;;;;;4987469;28;20426;-73
2023/02/17 08:52:25;;;;;;;2.67;2.47;;;12.70;99.90;;;;;;5001327;28;20415;-70
2023/02/17 08:54:51;;;;;;;3.33;2.90;;;12.70;99.90;;;;;;4985255;28;20197;-71
2023/02/17 08:57:17;;;;;;;6.50;3.20;;;12.90;99.90;;;;;;4999879;28;20676;-72
2023/02/17 08:59:46;;;;;;;4.83;3.10;;;12.80;99.90;;;;;;4991199;28;20265;-72
2023/02/17 09:02:12;;;;;;;4.37;3.13;;;12.80;99.90;;;;;;4990303;28;21027;-71
2023/02/17 09:04:38;;;;;;;3.97;2.90;;;12.60;99.90;;;;;;4985122;28;20434;-72
2023/02/17 09:07:07;;;;;;;2.63;2.43;;;12.60;99.90;;;;;;4986720;28;20481;-72
2023/02/17 09:09:33;;;;;;;4.03;2.43;;;12.60;99.90;;;;;;5004578;28;20178;-72
2023/02/17 09:12:00;;;;;;;3.50;2.53;;;12.80;99.90;;;;;;5004769;28;21045;-71
2023/02/17 09:14:25;;;;;;;2.97;2.33;;;12.90;99.90;;;;;;5003996;28;20466;-71
2023/02/17 09:16:52;;;;;;;3.50;3.00;;;12.90;99.90;;;;;;5004679;28;20455;-72
2023/02/17 09:19:18;;;;;;;4.77;3.03;;;12.80;99.90;;;;;;5004161;28;20850;-71
2023/02/17 09:21:43;;;;;;;2.83;2.33;;;12.70;99.90;;;;;;5004701;28;20439;-71
2023/02/17 09:24:09;;;;;;;3.03;2.40;;;12.60;99.90;;;;;;5004267;28;20198;-71
2023/02/17 09:26:35;;;;;;;3.60;2.20;;;12.60;99.90;;;;;;4984744;28;20531;-72
2023/02/17 09:29:02;;;;;;;4.00;3.37;;;12.60;99.90;;;;;;4994562;28;20623;-70
2023/02/17 09:31:28;;;;;;;3.60;2.10;;;12.70;99.90;;;;;;4984688;28;20626;-72
2023/02/17 09:33:54;;;;;;;3.30;2.70;;;12.70;99.90;;;;;;4984611;28;20459;-71
2023/02/17 09:36:28;;;;;;;5.37;2.63;;;12.80;99.90;;;;;;4983459;28;20538;-70
2023/02/17 09:38:54;;;;;;;3.37;3.07;;;12.90;99.90;;;;;;4984655;28;20837;-72
2023/02/17 09:41:35;;;;;;;3.70;3.10;;;12.90;99.90;;;;;;4984265;28;20618;-71
2023/02/17 09:44:01;;;;;;;5.20;3.00;;;13.00;99.90;;;;;;4995726;28;20902;-72
2023/02/17 09:46:35;;;;;;;2.97;2.67;;;13.10;99.90;;;;;;5003807;28;20454;-72
2023/02/17 09:49:14;;;;;;;3.30;3.00;;;13.20;99.90;;;;;;4999970;28;20423;-70
2023/02/17 09:52:06;;;;;;;5.43;2.80;;;13.40;99.90;;;;;;5004105;28;20431;-71
2023/02/17 09:54:44;;;;;;;2.63;2.27;;;13.50;99.90;;;;;;5004009;28;20871;-72
2023/02/17 09:57:19;;;;;;;2.53;2.30;;;13.40;99.90;;;;;;4986248;28;20522;-71
2023/02/17 09:59:49;;;;;;;4.40;2.80;;;13.40;99.90;;;;;;4997540;28;20779;-71
2023/02/17 10:02:32;;;;;;;4.07;3.03;;;13.30;99.90;;;;;;4984283;28;20871;-70
2023/02/17 10:05:03;;;;;;;2.97;2.73;;;13.40;99.90;;;;;;4984363;28;20948;-72
2023/02/17 10:07:40;;;;;;;5.03;3.20;;;13.50;99.90;;;;;;4990751;28;20899;-72
2023/02/17 10:10:13;;;;;;;3.47;2.50;;;13.70;99.90;;;;;;4966506;28;20495;-72
2023/02/17 10:12:46;;;;;;;3.90;2.83;;;13.90;99.90;;;;;;4984040;28;20860;-72
2023/02/17 10:15:23;;;;;;;4.00;3.07;;;13.90;99.90;;;;;;4983908;28;20932;-71
2023/02/17 10:18:05;;;;;;;2.83;2.37;;;13.80;99.90;;;;;;4984358;28;20852;-72
2023/02/17 10:20:39;;;;;;;2.57;2.20;;;13.70;99.90;;;;;;4995303;28;20482;-70
2023/02/17 10:23:17;;;;;;;3.17;2.37;;;13.60;99.90;;;;;;4985401;28;20974;-70
2023/02/17 10:26:10;;;;;;;2.17;1.93;;;13.60;99.90;;;;;;5002567;28;20835;-70
2023/02/17 10:28:47;;;;;;;3.00;2.67;;;13.70;99.90;;;;;;4987541;28;20777;-71
2023/02/17 10:31:37;;;;;;;2.63;1.70;;;14.30;99.90;;;;;;5003175;28;20410;-72
2023/02/17 10:34:19;;;;;;;3.70;2.70;;;14.30;99.90;;;;;;5003234;28;20464;-71
2023/02/17 10:37:00;;;;;;;3.23;2.57;;;14.10;99.90;;;;;;4999454;28;20763;-70
2023/02/17 10:39:48;;;;;;;3.93;2.13;;;14.10;99.90;;;;;;4991378;28;20969;-70
2023/02/17 10:42:43;;;;;;;7.27;2.70;;;14.40;99.90;;;;;;4983953;28;20446;-70
2023/02/17 10:45:34;;;;;;;2.67;1.90;;;14.80;99.90;;;;;;4980413;28;20435;-71
2023/02/17 10:48:27;;;;;;;3.20;2.00;;;15.00;99.90;;;;;;4994266;28;20928;-71
2023/02/17 10:50:55;;;;;;;3.40;2.03;;;15.20;99.90;;;;;;4985162;28;20906;-69
2023/02/17 10:53:27;;;;;;;7.80;2.07;;;15.40;99.90;;;;;;4983759;28;20665;-69
2023/02/17 10:56:05;;;;;;;3.30;1.83;;;15.50;99.90;;;;;;4983441;28;20423;-70
2023/02/17 10:58:53;;;;;;;2.37;2.10;;;15.00;99.90;;;;;;4966346;28;20838;-69
2023/02/17 11:01:19;;;;;;;6.13;2.43;;;14.90;99.90;;;;;;4983405;28;20987;-70
2023/02/17 11:03:45;;;;;;;2.20;2.00;;;14.70;99.90;;;;;;4983726;28;20900;-71
2023/02/17 11:06:21;;;;;;;2.10;1.57;;;14.70;99.90;;;;;;4983200;28;20172;-69
2023/02/17 11:08:53;;;;;;;2.17;1.73;;;14.90;99.90;;;;;;4994018;28;20270;-71
2023/02/17 11:11:24;;;;;;;2.30;1.70;;;15.30;99.90;;;;;;4987101;28;20785;-70
2023/02/17 11:14:16;;;;;;;2.33;1.70;;;15.50;99.90;;;;;;4983538;28;20449;-70
2023/02/17 11:16:45;;;;;;;1.73;1.50;;;15.50;99.90;;;;;;4983838;28;20758;-71
2023/02/17 11:19:24;;;;;;;3.83;1.90;;;15.80;99.90;;;;;;4983814;28;20495;-71
2023/02/17 11:21:54;;;;;;;3.23;1.97;;;15.70;99.90;;;;;;4985864;28;20454;-70
2023/02/17 11:24:20;;;;;;;7.13;2.10;;;15.70;99.90;;;;;;5003170;28;20561;-70
2023/02/17 11:27:01;;;;;;;2.20;1.80;;;15.90;99.90;;;;;;5003017;28;20996;-71
2023/02/17 11:29:29;;;;;;;5.37;1.73;;;16.10;99.90;;;;;;4990311;28;20246;-71
2023/02/17 11:32:00;;;;;;;1.87;1.33;;;16.40;99.90;;;;;;4983223;28;20782;-70
2023/02/17 11:34:29;;;;;;;2.83;1.60;;;16.40;99.90;;;;;;4983070;28;20451;-71
2023/02/17 11:37:08;;;;;;;4.60;1.40;;;16.50;99.90;;;;;;4983755;28;20419;-71
2023/02/17 11:39:39;;;;;;;2.10;1.17;;;16.50;99.90;;;;;;4992921;28;20402;-71
2023/02/17 11:42:20;;;;;;;1.57;1.20;;;15.80;99.90;;;;;;5006013;28;20496;-70
2023/02/17 11:44:47;;;;;;;1.17;1.07;;;15.30;99.90;;;;;;5000250;28;20427;-68
2023/02/17 11:47:45;;;;;;;3.33;1.23;;;15.20;99.90;;;;;;4986380;28;20424;-71
2023/02/17 11:50:45;;;;;;;7.83;1.63;;;15.20;99.90;;;;;;4986522;28;20400;-70
2023/02/17 11:53:29;;;;;;;1.80;1.00;;;15.10;99.90;;;;;;4986570;28;20431;-72
2023/02/17 11:56:17;;;;;;;3.10;1.40;;;15.10;99.90;;;;;;4990938;28;20402;-70
2023/02/17 11:59:00;;;;;;;2.60;0.90;;;15.00;99.90;;;;;;4986339;28;20415;-70
2023/02/17 12:02:10;;;;;;;1.93;1.20;;;15.10;99.90;;;;;;5003109;28;20864;-72
2023/02/17 12:04:52;;;;;;;2.60;1.40;;;15.10;99.90;;;;;;5005706;28;20925;-71
2023/02/17 12:07:29;;;;;;;1.30;1.17;;;15.20;99.90;;;;;;4988232;28;20415;-71
2023/02/17 12:10:21;;;;;;;2.27;1.20;;;15.00;99.90;;;;;;4996331;28;20408;-70
2023/02/17 12:12:58;;;;;;;3.87;1.60;;;15.00;99.90;;;;;;4968673;28;20430;-71
2023/02/17 12:16:03;;;;;;;1.87;1.23;;;15.10;99.90;;;;;;4985877;28;20419;-70
2023/02/17 12:18:59;;;;;;;3.20;1.47;;;14.90;99.90;;;;;;4985505;28;20855;-70
2023/02/17 12:21:34;;;;;;;2.00;1.37;;;15.10;99.90;;;;;;4985696;28;20910;-71
2023/02/17 12:24:23;;;;;;;1.50;1.40;;;15.10;99.90;;;;;;4996707;28;20886;-72
2023/02/17 12:27:03;;;;;;;1.53;1.20;;;14.90;99.90;;;;;;5005370;28;20726;-69
2023/02/17 12:29:51;;;;;;;2.40;1.53;;;15.00;99.90;;;;;;4984658;28;20408;-70
2023/02/17 12:32:29;;;;;;;4.20;1.50;;;15.00;99.90;;;;;;4967784;28;20431;-69
2023/02/17 12:35:17;;;;;;;5.20;1.60;;;14.90;99.90;;;;;;4985455;28;20929;-69
2023/02/17 12:38:15;;;;;;;2.03;1.20;;;15.00;99.90;;;;;;4968634;28;20431;-71
2023/02/17 12:41:02;;;;;;;2.87;1.50;;;14.90;99.90;;;;;;4979027;28;20492;-70
2023/02/17 12:43:38;;;;;;;1.37;1.27;;;15.00;99.90;;;;;;4991652;28;20553;-71
2023/02/17 12:46:10;;;;;;;1.60;1.37;;;14.90;99.90;;;;;;4981961;28;20413;-68
2023/02/17 12:48:46;;;;;;;1.43;1.20;;;14.90;99.90;;;;;;5005005;28;20413;-70
2023/02/17 12:51:25;;;;;;;1.27;1.03;;;15.10;99.90;;;;;;5002882;28;20505;-70
2023/02/17 12:54:10;;;;;;;2.50;1.43;;;15.40;99.90;;;;;;4996513;28;20447;-69
2023/02/17 12:57:00;;;;;;;3.60;1.30;;;15.60;99.90;;;;;;4976390;28;20446;-71
2023/02/17 12:59:34;;;;;;;4.03;2.10;;;15.80;99.90;;;;;;5005524;28;20776;-71
2023/02/17 13:02:01;;;;;;;2.37;1.10;;;15.90;99.90;;;;;;4984642;28;20454;-70
2023/02/17 13:04:30;;;;;;;2.13;1.10;;;15.90;99.90;;;;;;4985006;28;21023;-69
2023/02/17 13:07:08;;;;;;;2.80;0.93;;;15.70;99.90;;;;;;4967622;28;20949;-71
2023/02/17 13:09:39;;;;;;;1.57;0.90;;;15.60;99.90;;;;;;4986405;28;20507;-71